Benwood, West Virginia
Current Conditions -  °F | °C
As of 9:17 AM on Thursday 23 Oct 2014 (Local Time) from KHLG Reporting Station
Overcast Overcast  
Wind Chill: 41°   Ceiling: 1500
Heat Index: 45°   Visibility: 9mi
Dew Point: 43°   Wind: 8mph
Humidity: 93%   Direction: 320°NW
Pressure: 30.17"   Gusts: NA
Location:  40.02°N, 80.73°W
Report Text: KHLG 231317Z 32007KT 9SM FEW008 OVC015 07/06 A3017 RMK AO2 T00720061
Loading
Personal Weather Stations






























Interactive Weather Map
Tropical Storm Tracking
New forecast layout! Learn more

10-Day Weather Forecast

Advertisements
Track Severe Weather on mobile